createdAt,value
2024-05-09T00:00:48.452Z,4.18
2024-05-09T00:03:36.771Z,4.07
2024-05-09T00:08:34.409Z,3.90
2024-05-09T00:11:02.785Z,3.97
2024-05-09T00:13:31.256Z,3.92
2024-05-09T00:16:00.192Z,4.30
2024-05-09T00:18:29.007Z,4.28
2024-05-09T00:20:56.773Z,3.83
2024-05-09T00:23:25.143Z,4.18
2024-05-09T00:25:54.832Z,3.83
2024-05-09T00:28:24.395Z,3.50
2024-05-09T00:33:21.570Z,4.68
2024-05-09T00:35:50.684Z,3.83
2024-05-09T00:38:18.852Z,4.15
2024-05-09T00:40:46.504Z,4.20
2024-05-09T00:43:15.977Z,3.83
2024-05-09T00:48:17.718Z,4.10
2024-05-09T00:50:47.660Z,4.05
2024-05-09T00:53:18.940Z,4.50
2024-05-09T00:55:47.839Z,3.97
2024-05-09T00:58:18.912Z,3.72
2024-05-09T01:00:47.347Z,4.22
2024-05-09T01:05:44.605Z,4.75
2024-05-09T01:08:14.423Z,4.00
2024-05-09T01:10:44.977Z,4.57
2024-05-09T01:13:14.259Z,4.75
2024-05-09T01:15:42.197Z,3.97
2024-05-09T01:18:12.659Z,4.22
2024-05-09T01:20:44.137Z,4.15
2024-05-09T01:23:16.018Z,4.05
2024-05-09T01:25:47.027Z,3.47
2024-05-09T01:28:16.429Z,4.43
2024-05-09T01:30:44.300Z,3.80
2024-05-09T01:33:13.503Z,3.80
2024-05-09T01:38:17.598Z,3.60
2024-05-09T01:40:45.812Z,4.25
2024-05-09T01:43:14.024Z,4.25
2024-05-09T01:45:41.885Z,3.92
2024-05-09T01:48:11.561Z,4.53
2024-05-09T01:50:42.362Z,4.25
2024-05-09T01:53:14.168Z,3.90
2024-05-09T01:55:43.199Z,4.07
2024-05-09T01:58:11.607Z,3.80
2024-05-09T02:00:42.580Z,3.53
2024-05-09T02:03:15.679Z,4.03
2024-05-09T02:05:47.571Z,3.53
2024-05-09T02:08:21.982Z,4.07
2024-05-09T02:10:50.757Z,3.47
2024-05-09T02:13:19.192Z,3.53
2024-05-09T02:15:46.893Z,3.95
2024-05-09T02:18:15.303Z,5.05
2024-05-09T02:20:43.794Z,3.95
2024-05-09T02:25:41.984Z,3.63
2024-05-09T02:28:10.229Z,3.85
2024-05-09T02:30:41.114Z,5.15
2024-05-09T02:33:13.093Z,4.47
2024-05-09T02:35:43.767Z,4.90
2024-05-09T02:38:13.230Z,4.78
2024-05-09T02:40:41.325Z,4.72
2024-05-09T02:43:12.744Z,4.88
2024-05-09T02:45:41.108Z,4.53
2024-05-09T02:48:13.717Z,4.50
2024-05-09T02:50:42.391Z,4.78
2024-05-09T02:53:27.978Z,4.75
2024-05-09T02:55:55.928Z,4.15
2024-05-09T02:58:24.129Z,4.07
2024-05-09T03:00:52.182Z,4.05
2024-05-09T03:03:20.799Z,4.60
2024-05-09T03:05:48.649Z,4.22
2024-05-09T03:08:17.011Z,4.20
2024-05-09T03:10:51.946Z,3.95
2024-05-09T03:13:20.481Z,4.35
2024-05-09T03:15:55.235Z,3.83
2024-05-09T03:18:33.754Z,3.92
2024-05-09T03:21:33.963Z,4.32
2024-05-09T03:24:05.513Z,4.38
2024-05-09T03:26:36.818Z,4.15
2024-05-09T03:29:07.828Z,4.00
2024-05-09T03:31:36.919Z,3.80
2024-05-09T03:34:05.980Z,4.85
2024-05-09T03:36:33.799Z,4.53
2024-05-09T03:39:02.039Z,4.55
2024-05-09T03:41:31.058Z,4.03
2024-05-09T03:43:59.855Z,4.50
2024-05-09T03:46:27.578Z,4.60
2024-05-09T03:48:55.777Z,4.80
2024-05-09T03:51:23.571Z,5.57
2024-05-09T03:53:53.868Z,5.07
2024-05-09T03:56:27.555Z,5.55
2024-05-09T04:04:24.425Z,4.43
2024-05-09T04:06:59.133Z,5.05
2024-05-09T04:09:30.198Z,5.32
2024-05-09T04:11:59.064Z,4.55
2024-05-09T04:14:27.769Z,5.60
2024-05-09T04:16:56.194Z,5.68
2024-05-09T04:19:25.096Z,5.32
2024-05-09T04:21:53.636Z,5.28
2024-05-09T04:24:21.824Z,4.45
2024-05-09T04:26:49.883Z,4.93
2024-05-09T04:29:26.128Z,4.65
2024-05-09T04:35:24.987Z,5.05
2024-05-09T04:37:59.178Z,4.13
2024-05-09T04:40:35.681Z,4.40
2024-05-09T04:43:20.926Z,4.68
2024-05-09T04:57:05.034Z,3.25
2024-05-09T04:59:34.371Z,3.88
2024-05-09T05:14:11.895Z,3.72
2024-05-09T05:16:40.720Z,4.18
2024-05-09T05:28:32.088Z,3.95
2024-05-09T05:31:00.596Z,3.78
2024-05-09T05:33:40.691Z,3.58
2024-05-09T05:36:12.169Z,3.33
2024-05-09T05:38:40.100Z,2.92
2024-05-09T05:41:08.437Z,3.03
2024-05-09T05:43:41.434Z,3.13
2024-05-09T05:46:10.057Z,3.28
2024-05-09T05:48:38.105Z,3.55
2024-05-09T05:51:08.440Z,3.55
2024-05-09T05:53:36.614Z,3.50
2024-05-09T05:56:05.765Z,2.63
2024-05-09T05:58:33.632Z,3.35
2024-05-09T06:03:29.979Z,3.35
2024-05-09T06:06:19.549Z,3.40
2024-05-09T06:09:14.142Z,3.10
2024-05-09T06:11:45.519Z,3.35
2024-05-09T06:16:53.465Z,3.60
2024-05-09T06:19:23.091Z,4.65
2024-05-09T06:21:51.768Z,4.47
2024-05-09T06:24:19.683Z,3.72
2024-05-09T06:26:48.041Z,4.30
2024-05-09T06:29:16.025Z,3.28
2024-05-09T06:32:09.776Z,3.65
2024-05-09T07:29:01.117Z,2.25
2024-05-09T07:31:30.858Z,2.17
2024-05-09T07:34:00.826Z,1.77
2024-05-09T07:36:30.129Z,1.77
2024-05-09T07:53:39.682Z,1.58
2024-05-09T07:59:08.362Z,2.00
2024-05-09T08:01:36.969Z,1.63
2024-05-09T08:04:05.099Z,1.25
2024-05-09T08:06:34.138Z,2.30
2024-05-09T08:11:42.576Z,1.55
2024-05-09T08:16:54.049Z,1.67
2024-05-09T08:19:22.650Z,1.52
2024-05-09T08:21:51.081Z,1.95
2024-05-09T08:24:18.969Z,2.50
2024-05-09T08:26:47.450Z,1.88
2024-05-09T08:29:25.103Z,2.10
2024-05-09T08:32:11.292Z,1.67
2024-05-09T08:37:39.981Z,1.08
2024-05-09T08:40:16.614Z,1.83
2024-05-09T08:42:52.952Z,1.58
2024-05-09T08:45:28.846Z,1.15
2024-05-09T08:47:59.815Z,1.02
2024-05-09T08:53:10.244Z,1.67
2024-05-09T08:55:41.791Z,1.50
2024-05-09T08:58:17.217Z,1.58
2024-05-09T09:00:46.928Z,1.33
2024-05-09T09:03:27.911Z,1.05
2024-05-09T09:06:00.635Z,1.42
2024-05-09T09:08:33.871Z,1.50
2024-05-09T09:11:04.251Z,1.42
2024-05-09T09:13:36.811Z,1.42
2024-05-09T09:16:07.039Z,2.63
2024-05-09T09:18:35.205Z,1.65
2024-05-09T09:21:31.226Z,2.00
2024-05-09T09:26:41.569Z,2.58
2024-05-09T09:29:10.391Z,2.45
2024-05-09T09:31:39.460Z,2.55
2024-05-09T09:34:19.728Z,1.95
2024-05-09T09:36:50.311Z,1.65
2024-05-09T09:39:21.045Z,2.17
2024-05-09T09:41:52.542Z,2.53
2024-05-09T09:45:04.256Z,1.88
2024-05-09T09:47:41.631Z,2.60
2024-05-09T09:50:14.453Z,1.90
2024-05-09T09:52:46.422Z,1.88
2024-05-09T09:58:25.162Z,1.55
2024-05-09T10:00:56.982Z,2.22
2024-05-09T10:03:25.105Z,2.00
2024-05-09T10:05:54.612Z,1.90
2024-05-09T10:08:25.196Z,1.83
2024-05-09T10:10:54.091Z,1.50
2024-05-09T10:13:41.956Z,1.80
2024-05-09T10:16:11.815Z,1.55
2024-05-09T10:18:41.907Z,1.63
2024-05-09T10:21:18.032Z,1.88
2024-05-09T10:24:00.667Z,1.48
2024-05-09T10:26:36.376Z,1.45
2024-05-09T10:29:17.825Z,1.60
2024-05-09T10:31:48.508Z,1.52
2024-05-09T10:34:24.433Z,1.67
2024-05-09T10:36:55.248Z,1.38
2024-05-09T10:39:23.579Z,1.48
2024-05-09T10:41:51.931Z,1.75
2024-05-09T10:44:22.582Z,1.77
2024-05-09T10:46:51.601Z,1.80
2024-05-09T10:49:19.556Z,1.58
2024-05-09T10:54:16.561Z,1.35
2024-05-09T10:56:45.031Z,1.30
2024-05-09T10:59:13.577Z,1.80
2024-05-09T11:01:42.192Z,1.45
2024-05-09T11:04:10.970Z,1.33
2024-05-09T11:06:40.657Z,1.63
2024-05-09T11:09:08.978Z,1.60
2024-05-09T11:11:37.440Z,1.73
2024-05-09T11:14:16.940Z,2.30
2024-05-09T11:16:45.794Z,1.55
2024-05-09T11:19:14.902Z,1.77
2024-05-09T11:21:44.582Z,1.30
2024-05-09T11:24:12.852Z,1.83
2024-05-09T11:26:41.266Z,1.23
2024-05-09T11:29:09.558Z,1.50
2024-05-09T11:31:50.565Z,1.50
2024-05-09T11:34:18.571Z,1.27
2024-05-09T11:36:47.240Z,1.25
2024-05-09T11:39:16.561Z,1.45
2024-05-09T11:41:45.347Z,1.70
2024-05-09T11:44:13.783Z,1.65
2024-05-09T11:46:44.258Z,1.20
2024-05-09T11:49:12.311Z,0.80
2024-05-09T11:51:41.653Z,1.50
2024-05-09T11:54:09.595Z,1.33
2024-05-09T11:56:39.051Z,1.70
2024-05-09T11:59:07.064Z,1.80
2024-05-09T12:04:04.523Z,1.55
2024-05-09T12:06:33.369Z,1.40
2024-05-09T12:09:01.216Z,1.35
2024-05-09T12:11:30.355Z,1.75
2024-05-09T12:16:26.696Z,1.20
2024-05-09T12:18:56.692Z,1.60
2024-05-09T12:21:25.635Z,1.30
2024-05-09T12:23:54.439Z,1.20
2024-05-09T12:26:22.359Z,1.33
2024-05-09T12:28:51.880Z,1.27
2024-05-09T12:31:19.893Z,1.40
2024-05-09T12:34:03.335Z,1.20
2024-05-09T12:36:34.062Z,1.00
2024-05-09T12:39:06.101Z,0.85
2024-05-09T12:41:34.644Z,1.30
2024-05-09T12:44:03.244Z,1.40
2024-05-09T12:47:40.278Z,1.42
2024-05-09T12:50:15.729Z,1.30
2024-05-09T12:52:50.083Z,1.33
2024-05-09T12:55:18.196Z,1.17
2024-05-09T12:57:47.518Z,1.20
2024-05-09T13:00:23.795Z,1.80
2024-05-09T13:02:56.656Z,1.70
2024-05-09T13:05:25.363Z,0.85
2024-05-09T13:07:54.187Z,1.80
2024-05-09T13:10:29.096Z,1.80
2024-05-09T13:13:02.049Z,0.82
2024-05-09T13:15:31.765Z,1.00
2024-05-09T13:18:03.235Z,1.35
2024-05-09T13:20:37.760Z,1.48
2024-05-09T13:23:08.419Z,1.45
2024-05-09T13:25:38.244Z,1.52
2024-05-09T13:28:13.441Z,1.15
2024-05-09T13:30:44.318Z,1.77
2024-05-09T13:33:14.632Z,1.15
2024-05-09T13:35:47.432Z,1.40
2024-05-09T13:38:21.121Z,1.33
2024-05-09T13:40:50.141Z,1.98
2024-05-09T13:43:19.554Z,0.93
2024-05-09T13:45:48.173Z,1.27
2024-05-09T13:48:16.672Z,1.35
2024-05-09T13:50:44.820Z,1.30
2024-05-09T13:55:41.075Z,1.50
2024-05-09T13:58:10.413Z,1.33
2024-05-09T14:00:46.284Z,1.05
2024-05-09T14:03:20.273Z,1.00
2024-05-09T14:05:51.353Z,1.20
2024-05-09T14:08:24.117Z,1.13
2024-05-09T14:10:52.838Z,1.25
2024-05-09T14:13:21.301Z,1.27
2024-05-09T14:18:18.836Z,1.15
2024-05-09T14:20:47.514Z,1.60
2024-05-09T14:23:18.627Z,1.70
2024-05-09T14:25:52.419Z,0.98
2024-05-09T14:28:23.270Z,0.65
2024-05-09T14:30:51.741Z,1.15
2024-05-09T14:33:25.712Z,1.13
2024-05-09T14:35:54.261Z,1.20
2024-05-09T14:38:25.954Z,1.20
2024-05-09T14:40:54.553Z,1.00
2024-05-09T14:43:24.083Z,1.48
2024-05-09T14:45:55.882Z,1.42
2024-05-09T14:48:26.384Z,1.40
2024-05-09T14:50:55.262Z,1.15
2024-05-09T14:53:29.478Z,1.00
2024-05-09T14:55:58.929Z,0.82
2024-05-09T14:58:28.492Z,1.02
2024-05-09T15:00:56.352Z,1.00
2024-05-09T15:05:54.758Z,0.98
2024-05-09T15:08:23.455Z,1.60
2024-05-09T15:13:21.905Z,1.67
2024-05-09T15:15:49.925Z,1.70
2024-05-09T15:20:46.944Z,1.27
2024-05-09T15:25:45.234Z,1.00
2024-05-09T15:28:13.645Z,0.93
2024-05-09T15:30:45.454Z,1.10
2024-05-09T15:33:15.630Z,1.15
2024-05-09T15:35:44.543Z,1.48
2024-05-09T15:38:15.291Z,1.40
2024-05-09T15:40:43.552Z,0.93
2024-05-09T15:43:12.031Z,1.08
2024-05-09T15:45:41.642Z,1.40
2024-05-09T15:48:11.131Z,1.40
2024-05-09T15:50:41.608Z,1.25
2024-05-09T15:53:13.425Z,0.95
2024-05-09T15:55:43.301Z,1.20
2024-05-09T15:58:12.576Z,1.10
2024-05-09T16:00:44.970Z,0.98
2024-05-09T16:03:15.300Z,1.40
2024-05-09T16:05:48.658Z,1.40
2024-05-09T16:08:17.453Z,1.85
2024-05-09T16:10:47.916Z,1.20
2024-05-09T16:13:17.985Z,1.83
2024-05-09T16:15:46.796Z,1.23
2024-05-09T16:18:15.475Z,1.27
2024-05-09T16:20:45.437Z,1.27
2024-05-09T16:23:15.868Z,1.30
2024-05-09T16:25:46.330Z,1.58
2024-05-09T16:28:19.377Z,1.38
2024-05-09T16:30:48.343Z,1.50
2024-05-09T16:35:49.912Z,0.73
2024-05-09T16:38:18.902Z,1.25
2024-05-09T16:40:48.236Z,1.20
2024-05-09T16:43:16.816Z,1.25
2024-05-09T16:45:45.341Z,1.58
2024-05-09T16:48:14.829Z,1.38
2024-05-09T16:50:45.386Z,1.30
2024-05-09T16:53:14.177Z,1.52
2024-05-09T16:55:41.974Z,1.60
2024-05-09T16:58:12.812Z,1.67
2024-05-09T17:00:43.616Z,1.42
2024-05-09T17:03:15.723Z,1.58
2024-05-09T17:06:35.531Z,1.80
2024-05-09T17:09:08.567Z,1.33
2024-05-09T17:11:41.877Z,1.52
2024-05-09T17:14:10.439Z,1.98
2024-05-09T17:16:38.464Z,2.00
2024-05-09T17:21:38.523Z,2.78
2024-05-09T17:24:07.020Z,1.98
2024-05-09T17:26:35.149Z,2.50
2024-05-09T17:29:03.474Z,2.60
2024-05-09T17:31:31.972Z,2.25
2024-05-09T17:34:01.856Z,2.53
2024-05-09T17:36:31.288Z,3.70
2024-05-09T17:38:59.874Z,4.43
2024-05-09T17:41:27.727Z,3.72
2024-05-09T17:43:56.425Z,3.05
2024-05-09T17:46:24.522Z,2.30
2024-05-09T17:51:20.782Z,3.08
2024-05-09T17:53:52.479Z,2.95
2024-05-09T17:56:21.960Z,2.95
2024-05-09T17:58:53.535Z,3.00
2024-05-09T18:01:26.299Z,3.35
2024-05-09T18:04:03.299Z,3.33
2024-05-09T18:06:35.350Z,3.17
2024-05-09T18:09:03.759Z,3.58
2024-05-09T18:11:32.295Z,2.72
2024-05-09T18:14:01.194Z,4.35
2024-05-09T18:16:34.942Z,3.10
2024-05-09T18:19:04.129Z,3.00
2024-05-09T18:21:32.803Z,3.17
2024-05-09T18:30:38.410Z,5.07
2024-05-09T18:33:11.735Z,4.32
2024-05-09T18:35:56.898Z,4.15
2024-05-09T18:38:27.104Z,5.00
2024-05-09T18:40:55.489Z,4.38
2024-05-09T18:43:31.007Z,4.38
2024-05-09T18:46:06.221Z,5.43
2024-05-09T18:48:35.343Z,5.85
2024-05-09T18:51:33.223Z,5.85
2024-05-09T18:54:01.802Z,4.93
2024-05-09T18:56:37.579Z,5.75
2024-05-09T18:59:05.834Z,5.03
2024-05-09T19:01:34.295Z,4.47
2024-05-09T19:04:02.371Z,5.40
2024-05-09T19:06:32.516Z,4.95
2024-05-09T19:09:00.322Z,5.97
2024-05-09T19:11:28.664Z,5.63
2024-05-09T19:13:58.847Z,5.05
2024-05-09T19:16:27.484Z,3.53
2024-05-09T19:18:57.043Z,4.03
2024-05-09T19:21:26.384Z,4.28
2024-05-09T19:24:00.167Z,4.75
2024-05-09T19:26:28.828Z,4.75
2024-05-09T19:28:56.542Z,4.93
2024-05-09T19:31:25.555Z,5.60
2024-05-09T19:33:53.800Z,5.32
2024-05-09T19:36:28.740Z,4.80
2024-05-09T19:38:57.759Z,5.03
2024-05-09T19:41:26.209Z,4.15
2024-05-09T19:43:54.005Z,3.88
2024-05-09T19:46:23.973Z,5.45
2024-05-09T19:48:52.113Z,4.70
2024-05-09T19:51:20.624Z,5.57
2024-05-09T19:53:50.858Z,4.90
2024-05-09T19:56:19.772Z,5.13
2024-05-09T19:58:47.587Z,3.47
2024-05-09T20:01:15.831Z,4.13
2024-05-09T20:03:47.404Z,4.13
2024-05-09T20:06:16.136Z,3.83
2024-05-09T20:08:44.145Z,3.45
2024-05-09T20:11:15.535Z,4.13
2024-05-09T20:13:43.214Z,4.13
2024-05-09T20:16:14.513Z,3.40
2024-05-09T20:18:43.627Z,3.35
2024-05-09T20:21:13.130Z,3.60
2024-05-09T20:23:41.079Z,3.25
2024-05-09T20:26:10.902Z,3.80
2024-05-09T20:28:39.696Z,3.40
2024-05-09T20:31:08.340Z,3.72
2024-05-09T20:33:36.299Z,3.92
2024-05-09T20:36:06.209Z,3.58
2024-05-09T20:38:33.845Z,4.75
2024-05-09T20:41:02.715Z,3.92
2024-05-09T20:43:31.414Z,3.55
2024-05-09T20:46:00.616Z,4.10
2024-05-09T20:48:28.555Z,4.05
2024-05-09T20:50:56.747Z,4.32
2024-05-09T20:53:24.896Z,4.50
2024-05-09T20:55:53.356Z,3.92
2024-05-09T20:58:21.452Z,4.00
2024-05-09T21:00:51.125Z,4.00
2024-05-09T21:03:20.775Z,4.25
2024-05-09T21:05:49.165Z,4.45
2024-05-09T21:08:17.586Z,3.47
2024-05-09T21:10:45.811Z,4.10
2024-05-09T21:13:32.604Z,4.13
2024-05-09T21:16:14.298Z,3.42
2024-05-09T21:19:07.354Z,3.53
2024-05-09T21:21:40.949Z,3.35
2024-05-09T21:24:08.956Z,3.88
2024-05-09T21:26:37.499Z,3.90
2024-05-09T21:29:05.782Z,3.97
2024-05-09T21:31:34.629Z,3.60
2024-05-09T21:34:02.557Z,4.13
2024-05-09T21:36:31.630Z,4.05
2024-05-09T21:39:01.802Z,4.25
2024-05-09T21:41:29.919Z,4.40
2024-05-09T21:43:57.604Z,4.03
2024-05-09T21:46:25.726Z,3.55
2024-05-09T21:48:54.030Z,3.78
2024-05-09T21:51:22.230Z,3.63
2024-05-09T21:53:49.854Z,4.32
2024-05-09T21:56:17.940Z,3.65
2024-05-09T21:58:45.632Z,4.07
2024-05-09T22:01:14.838Z,3.85
2024-05-09T22:03:42.698Z,3.65
2024-05-09T22:06:11.058Z,4.57
2024-05-09T22:08:38.675Z,4.75
2024-05-09T22:11:07.108Z,3.95
2024-05-09T22:13:34.838Z,3.83
2024-05-09T22:16:06.577Z,3.78
2024-05-09T22:18:34.890Z,3.67
2024-05-09T22:21:03.280Z,4.57
2024-05-09T22:23:31.123Z,4.18
2024-05-09T22:25:59.163Z,4.47
2024-05-09T22:28:27.018Z,4.75
2024-05-09T22:30:55.600Z,4.50
2024-05-09T22:33:23.520Z,5.15
2024-05-09T22:35:51.658Z,4.55
2024-05-09T22:38:19.370Z,4.93
2024-05-09T22:40:49.661Z,4.00
2024-05-09T22:43:21.018Z,4.82
2024-05-09T22:45:51.288Z,4.40
2024-05-09T22:48:19.435Z,5.03
2024-05-09T22:50:47.691Z,5.00
2024-05-09T22:53:15.850Z,4.57
2024-05-09T22:55:44.445Z,4.30
2024-05-09T22:58:14.262Z,4.63
2024-05-09T23:00:42.956Z,3.83
2024-05-09T23:03:16.622Z,4.43
2024-05-09T23:05:45.112Z,4.03
2024-05-09T23:08:12.711Z,4.47
2024-05-09T23:13:09.552Z,4.18
2024-05-09T23:15:38.801Z,3.53
2024-05-09T23:18:07.263Z,3.97
2024-05-09T23:20:38.958Z,5.50
2024-05-09T23:23:10.052Z,5.10
2024-05-09T23:25:44.053Z,4.43
2024-05-09T23:28:12.680Z,5.15
2024-05-09T23:33:13.267Z,4.72
2024-05-09T23:35:44.400Z,5.28
2024-05-09T23:38:13.113Z,5.18
2024-05-09T23:40:42.762Z,4.53
2024-05-09T23:43:12.551Z,4.97
2024-05-09T23:45:42.503Z,4.95
2024-05-09T23:48:11.145Z,5.18
2024-05-09T23:53:10.061Z,4.90
2024-05-09T23:55:41.464Z,4.45
2024-05-09T23:58:12.153Z,5.68
